Terminal Aerodrome Forecast
Issued by NWS Lake Charles, LA

Home | Current Version | Previous Version | Text Only | Print | Product List | Glossary On
Versions: 1 2 3 4 5 6 7 8 9 10 11 12 13 14 15 16 17 18 19 20
888
FTUS44 KLCH 011737
TAFARA
TAF
KARA 011737Z 0118/0218 23011KT P6SM SCT025
     FM012100 25013G20KT P6SM VCTS OVC015CB
     FM012300 32015G22KT P6SM SCT025
     FM020000 36015G21KT P6SM SKC=

USA.gov is the U.S. government's official web portal to all federal, state and local government web resources and services.